Time;durP1;ratioP1;P1;durP2;ratioP2;P2;SDS_P1;SDS_P2;PMS_P1;PMS_P2;Temp;Humidity;BMP_temperature;BMP_pressure;BME280_temperature;BME280_humidity;BME280_pressure;Samples;Min_cycle;Max_cycle;Signal;HPM_P1;HPM_P2
2021/06/25 00:02:07;;;;;;;2.55;2.17;;;16.80;99.90;;;;;;5032044;28;20252;-41
2021/06/25 00:04:35;;;;;;;2.75;2.00;;;16.80;99.90;;;;;;5032198;28;20204;-42
2021/06/25 00:07:05;;;;;;;2.47;2.15;;;16.70;99.90;;;;;;5032008;28;20209;-41
2021/06/25 00:09:33;;;;;;;2.30;2.10;;;16.70;99.90;;;;;;5031779;28;20727;-41
2021/06/25 00:12:01;;;;;;;3.33;2.47;;;16.70;99.90;;;;;;5031687;28;20200;-43
2021/06/25 00:14:29;;;;;;;2.30;2.20;;;16.70;99.90;;;;;;5031872;28;20689;-41
2021/06/25 00:16:57;;;;;;;2.42;2.22;;;16.70;99.90;;;;;;5031859;28;20311;-41
2021/06/25 00:19:26;;;;;;;1.85;1.75;;;16.70;99.90;;;;;;5031780;28;20212;-41
2021/06/25 00:21:54;;;;;;;2.97;1.95;;;16.70;99.90;;;;;;5031730;28;20232;-41
2021/06/25 00:24:23;;;;;;;3.03;2.15;;;16.60;99.90;;;;;;5033330;28;20237;-43
2021/06/25 00:26:53;;;;;;;2.20;2.00;;;16.60;99.90;;;;;;5034117;28;20212;-43
2021/06/25 00:29:21;;;;;;;1.98;1.77;;;16.60;99.90;;;;;;5033790;28;20280;-46
2021/06/25 00:31:50;;;;;;;2.45;1.55;;;16.60;99.90;;;;;;5032006;28;20655;-42
2021/06/25 00:34:18;;;;;;;2.92;1.77;;;16.50;99.90;;;;;;5031814;28;20215;-43
2021/06/25 00:36:46;;;;;;;2.05;1.80;;;16.50;99.90;;;;;;5031830;28;20213;-45
2021/06/25 00:39:14;;;;;;;1.75;1.50;;;16.50;99.90;;;;;;5031898;28;20667;-45
2021/06/25 00:41:44;;;;;;;1.58;1.48;;;16.50;99.90;;;;;;5031810;28;20323;-42
2021/06/25 00:44:16;;;;;;;2.42;1.90;;;16.40;99.90;;;;;;5031752;28;20295;-43
2021/06/25 00:46:45;;;;;;;4.55;1.52;;;16.40;99.90;;;;;;5031599;28;20240;-42
2021/06/25 00:49:14;;;;;;;1.92;1.83;;;16.40;99.90;;;;;;5031769;28;20220;-42
2021/06/25 00:51:43;;;;;;;1.95;1.75;;;16.30;99.90;;;;;;5031892;28;20250;-41
2021/06/25 00:54:12;;;;;;;2.33;1.60;;;16.30;99.90;;;;;;5031828;28;20665;-41
2021/06/25 00:56:41;;;;;;;1.40;1.30;;;16.30;99.90;;;;;;5031870;28;20232;-45
2021/06/25 00:59:11;;;;;;;1.23;1.13;;;16.30;99.90;;;;;;5031664;28;20753;-43
2021/06/25 01:01:39;;;;;;;1.77;1.67;;;16.20;99.90;;;;;;5032017;28;20219;-43
2021/06/25 01:04:07;;;;;;;1.73;1.45;;;16.10;99.90;;;;;;5031673;28;20510;-42
2021/06/25 01:06:37;;;;;;;1.50;1.40;;;16.10;99.90;;;;;;5031927;28;20252;-41
2021/06/25 01:09:08;;;;;;;2.95;2.70;;;16.10;99.90;;;;;;5031435;28;20679;-41
2021/06/25 01:11:36;;;;;;;1.40;1.30;;;16.00;99.90;;;;;;5031784;28;20300;-40
2021/06/25 01:14:05;;;;;;;1.63;1.52;;;16.00;99.90;;;;;;5031570;28;20660;-40
2021/06/25 01:16:34;;;;;;;1.55;1.45;;;15.90;99.90;;;;;;5031632;28;20209;-40
2021/06/25 01:19:02;;;;;;;1.63;1.30;;;15.90;99.90;;;;;;5031348;28;20671;-41
2021/06/25 01:21:31;;;;;;;1.45;1.30;;;15.90;99.90;;;;;;5031545;28;20410;-42
2021/06/25 01:24:00;;;;;;;1.85;1.67;;;15.80;99.90;;;;;;5033464;28;20782;-42
2021/06/25 01:26:28;;;;;;;1.40;1.30;;;15.80;99.90;;;;;;5035226;28;20304;-43
2021/06/25 01:28:56;;;;;;;3.28;1.38;;;15.70;99.90;;;;;;5035259;28;20299;-42
2021/06/25 01:31:23;;;;;;;2.08;1.92;;;15.70;99.90;;;;;;5035164;28;20299;-42
2021/06/25 01:33:51;;;;;;;2.38;1.60;;;15.70;99.90;;;;;;5034852;28;20668;-43
2021/06/25 01:36:19;;;;;;;1.55;1.45;;;15.60;99.90;;;;;;5034846;28;20574;-43
2021/06/25 01:38:50;;;;;;;1.95;1.85;;;15.60;99.90;;;;;;5035077;28;20219;-42
2021/06/25 01:41:17;;;;;;;1.77;1.55;;;15.60;99.90;;;;;;5034756;28;20590;-42
2021/06/25 01:43:46;;;;;;;1.60;1.50;;;15.70;99.90;;;;;;5034792;28;20319;-43
2021/06/25 01:46:15;;;;;;;2.40;1.63;;;15.70;99.90;;;;;;5034801;28;20204;-42
2021/06/25 01:48:43;;;;;;;1.95;1.83;;;15.70;99.90;;;;;;5034571;28;20319;-42
2021/06/25 01:51:11;;;;;;;2.28;1.90;;;15.70;99.90;;;;;;5034398;28;20362;-43
2021/06/25 01:53:39;;;;;;;1.60;1.50;;;15.70;99.90;;;;;;5034711;28;20193;-41
2021/06/25 01:56:09;;;;;;;1.52;1.38;;;15.70;99.90;;;;;;5034406;28;20728;-40
2021/06/25 01:58:36;;;;;;;2.33;1.75;;;15.70;99.90;;;;;;5034592;28;20215;-41
2021/06/25 02:01:10;;;;;;;1.63;1.50;;;15.70;99.90;;;;;;5034708;28;20215;-40
2021/06/25 02:03:39;;;;;;;1.80;1.70;;;15.70;99.90;;;;;;5034277;28;20434;-40
2021/06/25 02:06:08;;;;;;;2.30;2.10;;;15.60;99.90;;;;;;5034503;28;20303;-41
2021/06/25 02:08:36;;;;;;;2.38;2.08;;;15.60;99.90;;;;;;5034315;28;20244;-42
2021/06/25 02:11:04;;;;;;;4.00;2.10;;;15.60;99.90;;;;;;5034133;28;20213;-41
2021/06/25 02:13:33;;;;;;;2.03;1.83;;;15.60;99.90;;;;;;5034211;28;20208;-41
2021/06/25 02:16:01;;;;;;;2.47;2.15;;;15.70;99.90;;;;;;5034353;28;20204;-40
2021/06/25 02:18:29;;;;;;;1.88;1.70;;;15.70;99.90;;;;;;5034010;28;20299;-43
2021/06/25 02:20:58;;;;;;;3.45;1.80;;;15.70;99.90;;;;;;5034079;28;20766;-41
2021/06/25 02:23:26;;;;;;;2.25;2.05;;;15.70;99.90;;;;;;5034242;28;20283;-48
2021/06/25 02:25:54;;;;;;;2.38;2.03;;;15.70;99.90;;;;;;5034046;28;20292;-43
2021/06/25 02:28:22;;;;;;;2.08;1.90;;;15.70;99.90;;;;;;5033960;28;20247;-45
2021/06/25 02:30:55;;;;;;;2.95;2.75;;;15.70;99.90;;;;;;5033787;28;20205;-45
2021/06/25 02:33:23;;;;;;;2.40;2.20;;;15.70;99.90;;;;;;5033790;28;20220;-43
2021/06/25 02:35:51;;;;;;;4.43;2.08;;;15.70;99.90;;;;;;5033911;28;20231;-44
2021/06/25 02:38:19;;;;;;;2.97;2.30;;;15.70;99.90;;;;;;5033772;28;20212;-44
2021/06/25 02:40:47;;;;;;;3.25;2.97;;;15.70;99.90;;;;;;5033792;28;20209;-43
2021/06/25 02:43:15;;;;;;;2.05;1.90;;;15.70;99.90;;;;;;5033539;28;20316;-44
2021/06/25 02:45:43;;;;;;;2.47;2.30;;;15.70;99.90;;;;;;5033559;28;20303;-46
2021/06/25 02:48:12;;;;;;;2.08;1.95;;;15.70;99.90;;;;;;5033682;28;20212;-42
2021/06/25 02:50:41;;;;;;;2.60;2.17;;;15.70;99.90;;;;;;5033626;28;20236;-43
2021/06/25 02:53:09;;;;;;;2.50;2.30;;;15.70;99.90;;;;;;5033550;28;20299;-42
2021/06/25 02:55:50;;;;;;;2.75;2.20;;;15.70;99.90;;;;;;5033377;28;20810;-42
2021/06/25 02:58:18;;;;;;;2.40;2.20;;;15.70;99.90;;;;;;5034878;28;20227;-40
2021/06/25 03:00:46;;;;;;;2.22;1.98;;;15.70;99.90;;;;;;5033435;28;20219;-40
2021/06/25 03:03:16;;;;;;;2.30;2.08;;;15.70;99.90;;;;;;5033477;28;20337;-42
2021/06/25 03:05:44;;;;;;;2.58;2.38;;;15.70;99.90;;;;;;5033298;28;20291;-40
2021/06/25 03:08:13;;;;;;;3.13;2.88;;;15.70;99.90;;;;;;5033051;28;20295;-40
2021/06/25 03:10:41;;;;;;;3.10;2.20;;;15.70;99.90;;;;;;5033165;28;20648;-39
2021/06/25 03:13:09;;;;;;;2.15;2.03;;;15.70;99.90;;;;;;5033208;28;20213;-37
2021/06/25 03:15:37;;;;;;;2.50;2.30;;;15.70;99.90;;;;;;5032846;28;20205;-45
2021/06/25 03:18:05;;;;;;;2.13;2.03;;;15.70;99.90;;;;;;5033000;28;20291;-42
2021/06/25 03:20:35;;;;;;;2.75;1.90;;;15.70;99.90;;;;;;5032873;28;20248;-42
2021/06/25 03:23:05;;;;;;;2.58;2.38;;;15.70;99.90;;;;;;5032761;28;20204;-42
2021/06/25 03:25:33;;;;;;;2.17;2.00;;;15.60;99.90;;;;;;5032687;28;20252;-41
2021/06/25 03:28:02;;;;;;;2.25;2.00;;;15.70;99.90;;;;;;5032864;28;20216;-43
2021/06/25 03:30:30;;;;;;;2.40;2.20;;;15.70;99.90;;;;;;5032698;28;20219;-40
2021/06/25 03:32:59;;;;;;;2.58;2.10;;;15.70;99.90;;;;;;5032651;28;20228;-39
2021/06/25 03:35:27;;;;;;;2.38;2.00;;;15.60;99.90;;;;;;5032615;28;20259;-40
2021/06/25 03:37:56;;;;;;;2.25;2.10;;;15.70;99.90;;;;;;5032520;28;20266;-41
2021/06/25 03:40:25;;;;;;;2.60;2.40;;;15.60;99.90;;;;;;5032651;28;20295;-41
2021/06/25 03:42:54;;;;;;;2.63;2.35;;;15.60;99.90;;;;;;5032493;28;20208;-41
2021/06/25 03:45:22;;;;;;;2.45;2.10;;;15.60;99.90;;;;;;5032332;28;20213;-41
2021/06/25 03:47:51;;;;;;;2.08;1.98;;;15.70;99.90;;;;;;5032214;28;20695;-42
2021/06/25 03:50:19;;;;;;;2.42;2.22;;;15.70;99.90;;;;;;5032320;28;20219;-40
2021/06/25 03:52:47;;;;;;;2.72;2.53;;;15.70;99.90;;;;;;5032542;28;20307;-42
2021/06/25 03:55:17;;;;;;;2.60;2.35;;;15.70;99.90;;;;;;5031965;28;20695;-41
2021/06/25 03:57:45;;;;;;;2.55;2.35;;;15.70;99.90;;;;;;5032243;28;20204;-45
2021/06/25 04:00:15;;;;;;;2.50;2.30;;;15.70;99.90;;;;;;5032179;28;20291;-44
2021/06/25 04:02:44;;;;;;;2.55;2.35;;;15.70;99.90;;;;;;5031896;28;20307;-39
2021/06/25 04:05:12;;;;;;;2.45;2.25;;;15.70;99.90;;;;;;5032180;28;20577;-40
2021/06/25 04:07:41;;;;;;;2.65;2.38;;;15.70;99.90;;;;;;5032190;28;20230;-43
2021/06/25 04:10:13;;;;;;;3.40;2.15;;;15.70;99.90;;;;;;5031952;28;20715;-45
2021/06/25 04:12:42;;;;;;;2.50;2.30;;;15.70;99.90;;;;;;5031812;28;20208;-41
2021/06/25 04:15:11;;;;;;;2.70;2.50;;;15.80;99.90;;;;;;5031910;28;20224;-42
2021/06/25 04:17:39;;;;;;;2.67;2.47;;;15.80;99.90;;;;;;5032267;28;20291;-43
2021/06/25 04:20:08;;;;;;;2.80;2.60;;;15.80;99.90;;;;;;5031943;28;20378;-41
2021/06/25 04:22:36;;;;;;;4.32;2.58;;;15.80;99.90;;;;;;5031937;28;20219;-42
2021/06/25 04:25:05;;;;;;;2.85;2.55;;;15.90;99.90;;;;;;5031637;28;20299;-41
2021/06/25 04:27:33;;;;;;;2.67;2.47;;;15.90;99.90;;;;;;5031837;28;20244;-44
2021/06/25 04:30:04;;;;;;;4.10;2.75;;;15.90;99.90;;;;;;5032385;28;20209;-41
2021/06/25 04:32:33;;;;;;;3.50;2.50;;;15.90;99.90;;;;;;5031797;28;20284;-41
2021/06/25 04:35:01;;;;;;;3.53;2.65;;;15.90;99.90;;;;;;5031977;28;20343;-42
2021/06/25 04:37:29;;;;;;;3.15;2.88;;;15.90;99.90;;;;;;5032043;28;20695;-41
2021/06/25 04:39:57;;;;;;;3.65;2.30;;;15.90;99.90;;;;;;5032322;28;20694;-45
2021/06/25 04:42:25;;;;;;;2.55;2.35;;;16.00;99.90;;;;;;5032577;28;20215;-40
2021/06/25 04:44:53;;;;;;;2.45;2.25;;;16.00;99.90;;;;;;5032817;28;20257;-41
2021/06/25 04:47:23;;;;;;;2.45;2.25;;;16.00;99.90;;;;;;5032027;28;20738;-40
2021/06/25 04:49:51;;;;;;;2.25;1.95;;;16.00;99.90;;;;;;5031949;28;20299;-46
2021/06/25 04:52:19;;;;;;;2.45;2.28;;;16.00;99.90;;;;;;5031794;28;20237;-40
2021/06/25 04:54:47;;;;;;;2.50;2.30;;;16.10;99.90;;;;;;5031605;28;20290;-40
2021/06/25 04:57:15;;;;;;;2.55;2.35;;;16.10;99.90;;;;;;5031971;28;20209;-42
2021/06/25 04:59:43;;;;;;;2.40;2.20;;;16.10;99.90;;;;;;5035192;28;20303;-40
2021/06/25 05:02:12;;;;;;;2.42;2.10;;;16.20;99.90;;;;;;5035805;28;20307;-40
2021/06/25 05:04:41;;;;;;;2.55;2.35;;;16.20;99.90;;;;;;5035700;28;20718;-42
2021/06/25 05:07:09;;;;;;;2.47;2.28;;;16.20;99.90;;;;;;5035388;28;20292;-39
2021/06/25 05:09:37;;;;;;;2.75;2.55;;;16.20;99.90;;;;;;5034918;28;20335;-41
2021/06/25 05:12:06;;;;;;;3.15;2.10;;;16.20;99.90;;;;;;5035466;28;20748;-41
2021/06/25 05:14:34;;;;;;;3.83;2.83;;;16.20;99.90;;;;;;5035083;28;20320;-40
2021/06/25 05:17:02;;;;;;;2.35;2.15;;;16.20;99.90;;;;;;5035636;28;20547;-41
2021/06/25 05:19:30;;;;;;;3.45;2.28;;;16.20;99.90;;;;;;5035785;28;20219;-41
2021/06/25 05:21:59;;;;;;;2.88;2.63;;;16.30;99.90;;;;;;5035317;28;20776;-40
2021/06/25 05:24:27;;;;;;;2.58;2.13;;;16.30;99.90;;;;;;5034984;28;20297;-41
2021/06/25 05:26:55;;;;;;;2.58;2.38;;;16.30;99.90;;;;;;5035825;28;20212;-40
2021/06/25 05:29:23;;;;;;;3.03;2.75;;;16.40;99.90;;;;;;5035503;28;20213;-41
2021/06/25 05:31:51;;;;;;;2.63;2.42;;;16.50;99.90;;;;;;5035005;28;20215;-43
2021/06/25 05:34:18;;;;;;;4.90;2.53;;;16.60;99.90;;;;;;5034499;28;20766;-41
2021/06/25 05:36:47;;;;;;;3.67;2.40;;;16.70;99.90;;;;;;5035330;28;20233;-41
2021/06/25 05:39:16;;;;;;;2.72;2.35;;;16.80;99.90;;;;;;5035014;28;20288;-41
2021/06/25 05:41:44;;;;;;;2.75;2.40;;;16.80;99.90;;;;;;5035114;28;20263;-41
2021/06/25 05:44:12;;;;;;;2.75;2.47;;;16.90;99.90;;;;;;5034777;28;20574;-40
2021/06/25 05:46:40;;;;;;;2.95;2.65;;;16.90;99.90;;;;;;5035781;28;20738;-42
2021/06/25 05:49:08;;;;;;;4.18;2.90;;;17.00;99.90;;;;;;5034415;28;20219;-44
2021/06/25 05:51:36;;;;;;;5.03;3.00;;;17.00;99.90;;;;;;5034520;28;20295;-44
2021/06/25 05:54:05;;;;;;;2.75;2.55;;;17.10;99.90;;;;;;5034478;28;20213;-42
2021/06/25 05:56:34;;;;;;;3.25;2.97;;;17.20;99.90;;;;;;5034528;28;20359;-43
2021/06/25 05:59:02;;;;;;;3.42;2.65;;;17.30;99.90;;;;;;5034204;28;20299;-42
2021/06/25 06:01:30;;;;;;;2.80;2.50;;;17.40;99.90;;;;;;5034269;28;20212;-40
2021/06/25 06:03:58;;;;;;;3.25;2.58;;;17.40;99.90;;;;;;5034201;28;20259;-42
2021/06/25 06:06:26;;;;;;;3.67;3.33;;;17.50;99.90;;;;;;5034163;28;20205;-45
2021/06/25 06:08:55;;;;;;;5.50;3.00;;;17.50;99.90;;;;;;5033807;28;20247;-43
2021/06/25 06:11:23;;;;;;;2.80;2.60;;;17.60;99.90;;;;;;5033759;28;20365;-42
2021/06/25 06:13:52;;;;;;;3.58;3.10;;;17.70;99.90;;;;;;5034032;28;20304;-41
2021/06/25 06:16:20;;;;;;;4.03;3.45;;;17.80;99.90;;;;;;5033801;28;20265;-42
2021/06/25 06:18:49;;;;;;;3.85;3.55;;;17.80;99.90;;;;;;5033734;28;20694;-42
2021/06/25 06:21:19;;;;;;;3.53;3.17;;;17.70;99.90;;;;;;5033827;28;20244;-42
2021/06/25 06:32:14;;;;;;;5.13;4.55;;;18.00;99.90;;;;;;5033519;28;20233;-43
2021/06/25 06:34:44;;;;;;;4.93;4.05;;;18.10;99.90;;;;;;5033442;28;20717;-44
2021/06/25 06:37:16;;;;;;;7.38;4.57;;;18.30;99.90;;;;;;5033936;28;20219;-41
2021/06/25 06:39:44;;;;;;;4.18;3.88;;;18.60;99.90;;;;;;5033748;28;20209;-42
2021/06/25 06:42:12;;;;;;;5.07;4.00;;;18.70;99.90;;;;;;5033524;28;20218;-44
2021/06/25 06:44:42;;;;;;;4.35;3.75;;;18.80;99.90;;;;;;5033475;28;20258;-46
2021/06/25 06:47:09;;;;;;;5.13;4.07;;;18.90;99.90;;;;;;5033181;28;20204;-41
2021/06/25 06:49:37;;;;;;;5.55;3.97;;;19.00;99.90;;;;;;5033504;28;20316;-41
2021/06/25 06:52:06;;;;;;;4.43;4.03;;;19.10;99.90;;;;;;5033393;28;20244;-42
2021/06/25 06:54:34;;;;;;;5.30;4.30;;;19.20;99.90;;;;;;5033405;28;20300;-42
2021/06/25 06:57:02;;;;;;;4.00;3.70;;;19.40;99.90;;;;;;5033205;28;20229;-42
2021/06/25 06:59:30;;;;;;;5.05;4.22;;;19.60;99.90;;;;;;5033118;28;20213;-43
2021/06/25 07:01:59;;;;;;;3.80;3.42;;;19.70;99.90;;;;;;5033210;28;20299;-42
2021/06/25 07:04:38;;;;;;;4.55;3.33;;;19.90;99.90;;;;;;5032981;28;20569;-42
2021/06/25 07:07:06;;;;;;;4.15;3.75;;;20.10;99.90;;;;;;5033189;28;20639;-42
2021/06/25 07:09:37;;;;;;;3.63;3.35;;;20.20;99.90;;;;;;5032965;28;20785;-42
2021/06/25 07:12:06;;;;;;;4.05;3.75;;;20.10;99.90;;;;;;5033229;28;20204;-42
2021/06/25 07:14:34;;;;;;;4.85;3.67;;;19.90;99.90;;;;;;5034108;28;20311;-44
2021/06/25 07:17:03;;;;;;;4.82;3.42;;;19.90;99.90;;;;;;5032876;28;20239;-43
2021/06/25 07:19:31;;;;;;;4.05;3.75;;;19.90;99.90;;;;;;5032661;28;20631;-43
2021/06/25 07:21:59;;;;;;;3.55;3.17;;;19.90;99.90;;;;;;5032007;28;20299;-43
2021/06/25 07:24:28;;;;;;;3.38;3.08;;;19.90;99.90;;;;;;5032635;28;20292;-42
2021/06/25 07:26:56;;;;;;;4.13;2.92;;;19.70;99.90;;;;;;5032477;28;20299;-44
2021/06/25 07:29:24;;;;;;;3.75;3.45;;;19.60;99.90;;;;;;5032656;28;20213;-42
2021/06/25 07:31:52;;;;;;;3.75;3.08;;;19.50;99.90;;;;;;5032582;28;20209;-42
2021/06/25 07:34:22;;;;;;;6.68;3.80;;;19.40;99.90;;;;;;5032390;28;20212;-44
2021/06/25 07:36:50;;;;;;;4.00;3.70;;;19.20;99.90;;;;;;5032425;28;20267;-41
2021/06/25 07:39:18;;;;;;;3.70;3.40;;;19.00;99.90;;;;;;5032487;28;20213;-45
2021/06/25 07:41:46;;;;;;;2.90;2.67;;;18.90;99.90;;;;;;5032044;28;20213;-42
2021/06/25 07:44:14;;;;;;;4.28;3.95;;;18.80;99.90;;;;;;5032304;28;20287;-43
2021/06/25 07:46:42;;;;;;;3.72;3.40;;;18.90;99.90;;;;;;5032186;28;20338;-42
2021/06/25 07:49:10;;;;;;;3.50;2.65;;;19.00;99.90;;;;;;5032219;28;20690;-43
2021/06/25 07:51:39;;;;;;;2.17;2.00;;;19.10;99.90;;;;;;5032197;28;20314;-43
2021/06/25 07:54:07;;;;;;;3.53;2.70;;;19.10;99.90;;;;;;5032073;28;20261;-44
2021/06/25 07:56:35;;;;;;;2.50;2.30;;;19.10;99.90;;;;;;5032333;28;20268;-43
2021/06/25 07:59:03;;;;;;;2.03;1.83;;;19.00;99.90;;;;;;5032328;28;20647;-43
2021/06/25 08:01:31;;;;;;;1.80;1.70;;;19.10;99.90;;;;;;5032155;28;20311;-43
2021/06/25 08:03:59;;;;;;;2.22;2.05;;;19.20;99.90;;;;;;5032091;28;20205;-47
2021/06/25 08:06:29;;;;;;;3.03;2.28;;;19.30;99.90;;;;;;5032025;28;20296;-43
2021/06/25 08:09:02;;;;;;;2.95;2.08;;;19.40;99.90;;;;;;5124192;22;20754;-45
2021/06/25 08:11:30;;;;;;;2.50;2.30;;;19.50;99.90;;;;;;5031814;28;20663;-46
2021/06/25 08:13:58;;;;;;;2.50;2.30;;;19.60;99.90;;;;;;5031794;28;20244;-44
2021/06/25 08:16:27;;;;;;;4.05;3.38;;;19.70;99.90;;;;;;5031831;28;20315;-46
2021/06/25 08:18:57;;;;;;;5.85;3.85;;;19.90;99.90;;;;;;5031742;28;20573;-43
2021/06/25 08:21:27;;;;;;;3.17;2.90;;;20.10;99.90;;;;;;5031988;28;20303;-44
2021/06/25 08:23:55;;;;;;;3.05;2.72;;;20.30;99.90;;;;;;5031955;28;20208;-44
2021/06/25 08:26:25;;;;;;;2.42;2.22;;;20.40;99.90;;;;;;5031791;28;20620;-45
2021/06/25 08:28:53;;;;;;;2.13;1.92;;;20.50;99.90;;;;;;5031744;28;20307;-45
2021/06/25 08:31:22;;;;;;;2.45;2.22;;;20.50;99.90;;;;;;5031623;28;20213;-43
2021/06/25 08:33:50;;;;;;;3.20;2.78;;;20.50;99.90;;;;;;5035703;28;20209;-44
2021/06/25 08:36:18;;;;;;;2.63;2.42;;;20.60;99.90;;;;;;5035568;28;20718;-46
2021/06/25 08:38:46;;;;;;;6.25;5.78;;;20.60;99.90;;;;;;5035883;28;20607;-43
2021/06/25 08:41:14;;;;;;;3.72;2.90;;;20.50;99.90;;;;;;5035743;28;20658;-43
2021/06/25 08:43:43;;;;;;;3.95;2.90;;;20.60;99.90;;;;;;5035606;28;20212;-43
2021/06/25 08:46:11;;;;;;;3.72;3.42;;;20.60;99.90;;;;;;5035932;28;20303;-42
2021/06/25 08:48:40;;;;;;;4.03;3.08;;;20.60;99.90;;;;;;5035491;28;20251;-43
2021/06/25 08:51:10;;;;;;;3.83;2.85;;;20.50;99.90;;;;;;5035495;28;20219;-44
2021/06/25 08:53:38;;;;;;;3.13;2.92;;;20.40;99.90;;;;;;5035404;28;20259;-43
2021/06/25 08:56:06;;;;;;;2.72;2.53;;;20.30;99.90;;;;;;5035473;28;20264;-43
2021/06/25 08:58:34;;;;;;;2.72;2.53;;;20.20;99.90;;;;;;5035141;28;20213;-42
2021/06/25 09:01:03;;;;;;;3.15;2.90;;;20.10;99.90;;;;;;5035060;28;20204;-42
2021/06/25 09:03:33;;;;;;;3.40;3.10;;;20.00;99.90;;;;;;5034522;28;20215;-42
2021/06/25 09:06:09;;;;;;;3.25;2.95;;;20.20;99.90;;;;;;5035154;28;20213;-46
2021/06/25 09:08:37;;;;;;;3.00;2.70;;;20.50;99.90;;;;;;5035128;28;20208;-42
2021/06/25 09:11:20;;;;;;;3.30;2.95;;;20.70;99.90;;;;;;5035115;28;20268;-44
2021/06/25 09:13:48;;;;;;;2.25;2.08;;;20.80;99.90;;;;;;5035237;28;20208;-43
2021/06/25 09:19:41;;;;;;;3.15;2.78;;;21.10;99.90;;;;;;5055141;22;20236;-43
2021/06/25 09:22:09;;;;;;;3.03;2.83;;;21.20;99.90;;;;;;5035240;28;20295;-43
2021/06/25 09:24:37;;;;;;;2.70;2.50;;;21.30;99.90;;;;;;5035036;28;20231;-45
2021/06/25 09:27:07;;;;;;;2.67;2.45;;;21.30;99.90;;;;;;5034875;28;20648;-43
2021/06/25 09:29:37;;;;;;;2.95;2.22;;;21.40;99.90;;;;;;5034849;28;20624;-43
2021/06/25 09:32:09;;;;;;;2.42;2.22;;;21.60;99.90;;;;;;5035128;28;20219;-43
2021/06/25 09:34:41;;;;;;;2.40;2.10;;;21.70;99.90;;;;;;5034783;28;20209;-44
2021/06/25 09:37:13;;;;;;;2.80;2.50;;;21.90;99.90;;;;;;5034620;28;20232;-44
2021/06/25 09:39:44;;;;;;;3.15;2.45;;;22.00;99.90;;;;;;5034641;28;20292;-43
2021/06/25 09:42:22;;;;;;;2.72;2.53;;;21.90;99.90;;;;;;5034286;28;20299;-43
2021/06/25 09:45:00;;;;;;;2.70;2.13;;;21.90;99.90;;;;;;5033757;28;20219;-43
2021/06/25 09:47:31;;;;;;;2.58;2.30;;;21.70;99.90;;;;;;5034522;28;20204;-42
2021/06/25 09:50:12;;;;;;;2.13;2.03;;;21.70;99.90;;;;;;5034232;28;20311;-42
2021/06/25 09:52:54;;;;;;;3.00;2.08;;;21.80;99.90;;;;;;5034230;28;20244;-43
2021/06/25 09:55:24;;;;;;;2.50;2.30;;;21.90;99.90;;;;;;5034508;28;20658;-42
2021/06/25 09:58:33;;;;;;;2.00;1.73;;;22.00;99.90;;;;;;5034294;28;20229;-43
2021/06/25 10:03:52;;;;;;;2.30;2.10;;;21.90;99.90;;;;;;5034307;28;20213;-43
2021/06/25 10:06:22;;;;;;;2.20;2.00;;;21.90;99.90;;;;;;5034230;28;20646;-44
2021/06/25 10:08:51;;;;;;;3.33;1.98;;;21.80;99.90;;;;;;5033721;28;20668;-42
2021/06/25 10:11:22;;;;;;;2.70;2.50;;;21.80;99.90;;;;;;5033827;28;20209;-44
2021/06/25 10:13:53;;;;;;;3.60;2.83;;;21.70;99.90;;;;;;5034358;28;20304;-43
2021/06/25 10:16:21;;;;;;;2.95;2.75;;;21.60;99.90;;;;;;5034048;28;20232;-42
2021/06/25 10:18:52;;;;;;;3.95;2.30;;;21.50;99.90;;;;;;5033997;28;20236;-42
2021/06/25 10:21:23;;;;;;;2.92;2.63;;;21.50;99.90;;;;;;5034034;28;20634;-42
2021/06/25 10:23:59;;;;;;;2.30;2.10;;;21.40;99.90;;;;;;5033763;28;20216;-45
2021/06/25 10:26:30;;;;;;;2.72;2.35;;;21.30;99.90;;;;;;5034155;28;20382;-42
2021/06/25 10:28:58;;;;;;;2.33;2.13;;;21.30;99.90;;;;;;5033948;28;20278;-46
2021/06/25 10:31:27;;;;;;;2.28;2.08;;;21.40;99.90;;;;;;5033888;28;20213;-42
2021/06/25 10:33:56;;;;;;;2.20;2.10;;;21.40;99.90;;;;;;5033736;28;20310;-44
2021/06/25 10:36:27;;;;;;;2.25;2.13;;;21.40;99.90;;;;;;5033626;28;20624;-48
2021/06/25 10:38:56;;;;;;;2.88;2.67;;;21.40;99.90;;;;;;5033862;28;20232;-46
2021/06/25 10:41:24;;;;;;;2.10;1.95;;;21.40;99.90;;;;;;5034352;28;20263;-44
2021/06/25 10:43:54;;;;;;;2.60;2.40;;;21.20;99.90;;;;;;5033422;28;20307;-45
2021/06/25 10:46:37;;;;;;;2.30;2.10;;;21.20;99.90;;;;;;5033735;28;20244;-45
2021/06/25 10:49:09;;;;;;;2.70;2.50;;;21.10;99.90;;;;;;5033387;28;20219;-41
2021/06/25 10:51:39;;;;;;;1.88;1.77;;;21.00;99.90;;;;;;5033434;28;20209;-41
2021/06/25 10:54:16;;;;;;;2.53;2.20;;;21.10;99.90;;;;;;5033448;28;20209;-42
2021/06/25 10:57:07;;;;;;;2.80;2.58;;;21.30;99.90;;;;;;5032032;28;20219;-41
2021/06/25 10:59:45;;;;;;;2.58;2.38;;;21.40;99.90;;;;;;5026964;28;20216;-41
2021/06/25 11:02:14;;;;;;;1.90;1.80;;;21.60;99.90;;;;;;5032961;28;20212;-43
2021/06/25 11:04:46;;;;;;;2.60;2.40;;;21.80;99.90;;;;;;5033817;28;20302;-41
2021/06/25 11:07:16;;;;;;;1.95;1.85;;;22.00;99.90;;;;;;5033060;28;20303;-41
2021/06/25 11:10:02;;;;;;;3.15;2.30;;;22.20;99.90;;;;;;5032900;28;20267;-41
2021/06/25 11:12:33;;;;;;;2.60;2.10;;;22.60;99.90;;;;;;5032914;28;20260;-42
2021/06/25 11:15:31;;;;;;;2.75;1.98;;;23.00;99.90;;;;;;5032900;28;20278;-42
2021/06/25 11:18:00;;;;;;;1.83;1.73;;;23.50;99.60;;;;;;5032665;28;20327;-42
2021/06/25 11:20:32;;;;;;;1.70;1.60;;;23.70;99.40;;;;;;5032908;28;20291;-41
2021/06/25 11:23:07;;;;;;;1.80;1.70;;;23.70;98.80;;;;;;5032911;28;20208;-42
2021/06/25 11:25:42;;;;;;;1.40;1.30;;;23.50;98.60;;;;;;5032548;28;20255;-41
2021/06/25 11:28:36;;;;;;;1.25;1.15;;;23.20;99.10;;;;;;5032811;28;20642;-41
2021/06/25 11:31:20;;;;;;;0.95;0.80;;;22.50;99.60;;;;;;5032729;28;20271;-41
2021/06/25 11:34:11;;;;;;;3.42;1.35;;;21.60;99.90;;;;;;5031065;28;20208;-42
2021/06/25 11:36:51;;;;;;;1.55;1.10;;;20.80;99.90;;;;;;5032633;28;20303;-41
2021/06/25 11:39:30;;;;;;;1.10;1.00;;;20.10;99.90;;;;;;5032593;28;20278;-41
2021/06/25 11:42:04;;;;;;;2.50;1.30;;;19.50;99.90;;;;;;5032293;28;20568;-41
2021/06/25 11:44:35;;;;;;;1.20;1.10;;;19.20;99.90;;;;;;5032328;28;20256;-43
2021/06/25 11:47:07;;;;;;;1.17;1.02;;;18.90;99.90;;;;;;5032062;28;20562;-43
2021/06/25 11:49:39;;;;;;;2.03;1.50;;;18.70;99.90;;;;;;5032587;28;20304;-41
2021/06/25 11:52:11;;;;;;;1.25;1.15;;;18.50;99.90;;;;;;5032200;28;20244;-41
2021/06/25 11:54:40;;;;;;;3.70;1.83;;;18.30;99.90;;;;;;5032526;28;20283;-41
2021/06/25 11:57:16;;;;;;;3.42;1.98;;;18.20;99.90;;;;;;5032307;28;20262;-43
2021/06/25 12:00:00;;;;;;;1.90;1.60;;;18.10;99.90;;;;;;5032070;28;20295;-42
2021/06/25 12:02:40;;;;;;;2.53;2.33;;;18.10;99.90;;;;;;5032240;28;20444;-41
2021/06/25 12:05:09;;;;;;;2.08;1.88;;;18.10;99.90;;;;;;5032581;28;20611;-43
2021/06/25 12:07:38;;;;;;;1.75;1.63;;;18.10;99.90;;;;;;5033008;28;20236;-42
2021/06/25 12:10:07;;;;;;;4.88;4.47;;;18.20;99.90;;;;;;5032410;28;20618;-42
2021/06/25 12:12:37;;;;;;;3.92;2.75;;;18.30;99.90;;;;;;5032324;28;20650;-43
2021/06/25 12:15:08;;;;;;;2.75;2.20;;;18.50;99.90;;;;;;5031697;28;20220;-42
2021/06/25 12:17:45;;;;;;;2.90;1.73;;;18.60;99.90;;;;;;5031539;28;20339;-43
2021/06/25 12:20:18;;;;;;;2.75;2.50;;;18.80;99.90;;;;;;5031817;28;20559;-42
2021/06/25 12:23:06;;;;;;;2.05;1.95;;;19.10;99.90;;;;;;5031932;28;20232;-41
2021/06/25 12:25:37;;;;;;;2.60;2.40;;;19.30;99.90;;;;;;5031552;28;20215;-40
2021/06/25 12:28:10;;;;;;;2.53;2.20;;;19.60;99.90;;;;;;5031790;28;20228;-39
2021/06/25 12:30:40;;;;;;;3.13;2.42;;;19.80;99.90;;;;;;5031626;28;20295;-43
2021/06/25 12:33:10;;;;;;;2.95;2.70;;;20.00;99.90;;;;;;5031573;28;20303;-41
2021/06/25 12:35:40;;;;;;;2.88;2.58;;;20.10;99.90;;;;;;5031611;28;20204;-41
2021/06/25 12:38:11;;;;;;;2.30;2.10;;;20.20;99.90;;;;;;5031565;28;20271;-43
2021/06/25 12:40:46;;;;;;;1.75;1.65;;;20.20;99.90;;;;;;5031575;28;20703;-43
2021/06/25 12:43:16;;;;;;;4.35;2.53;;;20.20;99.90;;;;;;5031936;28;20208;-44
2021/06/25 12:45:47;;;;;;;2.33;2.13;;;20.10;99.90;;;;;;5031750;28;20197;-42
2021/06/25 12:48:18;;;;;;;2.13;1.95;;;19.90;99.90;;;;;;5031335;28;20578;-42
2021/06/25 12:50:47;;;;;;;1.83;1.60;;;19.70;99.90;;;;;;5031439;28;20231;-42
2021/06/25 12:53:23;;;;;;;2.20;1.70;;;19.40;99.90;;;;;;5031459;28;20216;-42
2021/06/25 12:55:51;;;;;;;2.80;2.60;;;19.20;99.90;;;;;;5031367;28;20295;-41
2021/06/25 12:58:20;;;;;;;2.10;1.90;;;19.00;99.90;;;;;;5031349;28;20681;-41
2021/06/25 13:00:54;;;;;;;3.20;1.30;;;18.80;99.90;;;;;;5031258;28;20244;-42
2021/06/25 13:03:22;;;;;;;1.50;1.40;;;18.70;99.90;;;;;;5031205;28;20252;-41
2021/06/25 13:05:50;;;;;;;1.92;1.83;;;18.60;99.90;;;;;;5031196;28;20209;-41
2021/06/25 13:08:26;;;;;;;1.35;1.25;;;18.60;99.90;;;;;;5031085;28;20296;-42
2021/06/25 13:10:56;;;;;;;2.58;1.73;;;18.50;99.90;;;;;;5031377;28;20286;-41
2021/06/25 13:13:27;;;;;;;1.67;1.42;;;18.40;99.90;;;;;;5031045;28;20262;-41
2021/06/25 13:15:58;;;;;;;3.17;1.92;;;18.30;99.90;;;;;;5031152;28;20227;-41
2021/06/25 13:18:29;;;;;;;2.17;1.40;;;18.30;99.90;;;;;;5031100;28;20384;-41